Time;durP1;ratioP1;P1;durP2;ratioP2;P2;SDS_P1;SDS_P2;PMS_P1;PMS_P2;Temp;Humidity;BMP_temperature;BMP_pressure;BME280_temperature;BME280_humidity;BME280_pressure;Samples;Min_cycle;Max_cycle;Signal;HPM_P1;HPM_P2
2022/03/24 00:00:06;;;;;;;27.30;14.40;;;3.50;99.90;;;;;;5096151;28;20090;-82
2022/03/24 00:02:33;;;;;;;22.80;14.10;;;3.40;99.90;;;;;;5095110;28;20056;-82
2022/03/24 00:04:59;;;;;;;21.30;13.87;;;3.40;99.90;;;;;;5095916;28;20040;-82
2022/03/24 00:07:26;;;;;;;24.07;14.97;;;3.30;99.90;;;;;;5095662;28;20044;-82
2022/03/24 00:09:53;;;;;;;25.17;14.93;;;3.20;99.90;;;;;;5096032;28;20047;-83
2022/03/24 00:12:21;;;;;;;33.10;14.50;;;3.20;99.90;;;;;;5094504;28;20390;-82
2022/03/24 00:14:49;;;;;;;21.80;12.97;;;3.20;99.90;;;;;;5095561;28;20076;-83
2022/03/24 00:17:17;;;;;;;25.63;15.53;;;3.00;99.90;;;;;;5095470;28;20055;-84
2022/03/24 00:19:43;;;;;;;27.80;14.73;;;3.00;99.90;;;;;;5096485;28;20051;-83
2022/03/24 00:22:11;;;;;;;23.87;13.53;;;3.00;99.90;;;;;;5096569;28;20048;-83
2022/03/24 00:24:39;;;;;;;23.87;13.37;;;3.00;99.90;;;;;;5095580;28;20048;-83
2022/03/24 00:27:06;;;;;;;22.53;14.37;;;2.80;99.90;;;;;;5096052;28;20059;-83
2022/03/24 00:29:33;;;;;;;24.67;13.70;;;2.60;99.90;;;;;;5095082;28;20048;-83
2022/03/24 00:32:01;;;;;;;25.93;14.67;;;2.70;99.90;;;;;;5095673;28;20472;-83
2022/03/24 00:34:28;;;;;;;24.27;15.17;;;2.80;99.90;;;;;;5094823;28;20525;-82
2022/03/24 00:36:55;;;;;;;22.47;13.37;;;2.70;99.90;;;;;;5095860;28;20062;-81
2022/03/24 00:39:22;;;;;;;23.70;13.17;;;2.70;99.90;;;;;;5095567;28;20074;-82
2022/03/24 00:41:48;;;;;;;25.00;15.57;;;2.70;99.90;;;;;;5095187;28;20476;-83
2022/03/24 00:44:15;;;;;;;23.43;14.27;;;2.70;99.90;;;;;;5094303;28;20109;-82
2022/03/24 00:46:42;;;;;;;24.37;14.60;;;2.60;99.90;;;;;;5094894;28;20050;-83
2022/03/24 00:49:10;;;;;;;18.90;13.03;;;2.60;99.90;;;;;;5094855;28;20052;-82
2022/03/24 00:51:37;;;;;;;26.13;14.47;;;2.50;99.90;;;;;;5094920;28;20058;-83
2022/03/24 00:54:04;;;;;;;20.83;12.87;;;2.50;99.90;;;;;;5095477;28;20047;-83
2022/03/24 00:56:30;;;;;;;22.57;14.07;;;2.40;99.90;;;;;;5094724;28;20078;-82
2022/03/24 00:58:57;;;;;;;19.17;13.33;;;2.40;99.90;;;;;;5093822;28;20051;-82
2022/03/24 01:01:24;;;;;;;27.67;15.23;;;2.30;99.90;;;;;;5094262;28;20044;-82
2022/03/24 01:03:51;;;;;;;25.40;14.23;;;2.20;99.90;;;;;;5097973;28;20050;-82
2022/03/24 01:06:22;;;;;;;22.27;13.17;;;2.10;99.90;;;;;;5101704;28;20131;-84
2022/03/24 01:08:50;;;;;;;21.20;12.45;;;2.10;99.90;;;;;;5097356;28;20101;-83
2022/03/24 01:11:17;;;;;;;25.23;12.93;;;2.10;99.90;;;;;;5097000;28;20048;-82
2022/03/24 01:13:44;;;;;;;21.03;13.63;;;2.10;99.90;;;;;;5096690;28;20453;-83
2022/03/24 01:16:12;;;;;;;19.10;13.00;;;2.00;99.90;;;;;;5094596;28;20054;-83
2022/03/24 01:18:39;;;;;;;22.33;13.03;;;1.90;99.90;;;;;;5076296;28;20056;-82
2022/03/24 01:21:07;;;;;;;27.73;15.30;;;1.80;99.90;;;;;;5076524;28;20135;-83
2022/03/24 01:23:36;;;;;;;23.40;15.27;;;1.80;99.90;;;;;;5076658;28;20551;-82
2022/03/24 01:26:05;;;;;;;17.37;12.73;;;1.70;99.90;;;;;;5097182;28;20489;-82
2022/03/24 01:28:33;;;;;;;21.83;13.97;;;1.60;99.90;;;;;;5096590;28;20127;-81
2022/03/24 01:31:00;;;;;;;22.17;14.17;;;1.50;99.90;;;;;;5098166;28;19931;-82
2022/03/24 01:33:26;;;;;;;22.17;14.57;;;1.40;99.90;;;;;;5096139;28;20053;-82
2022/03/24 01:35:53;;;;;;;21.27;12.87;;;1.40;99.90;;;;;;5095951;28;20052;-80
2022/03/24 01:38:22;;;;;;;20.93;11.63;;;1.30;99.90;;;;;;5094633;28;20052;-81
2022/03/24 01:40:51;;;;;;;25.37;13.90;;;1.40;99.90;;;;;;5095277;28;20051;-81
2022/03/24 01:43:19;;;;;;;23.93;15.23;;;1.40;99.90;;;;;;5096740;28;20052;-81
2022/03/24 01:45:45;;;;;;;24.57;14.27;;;1.40;99.90;;;;;;5096381;28;20073;-81
2022/03/24 01:48:14;;;;;;;25.33;16.00;;;1.40;99.90;;;;;;5096189;28;20439;-81
2022/03/24 01:50:41;;;;;;;21.30;11.67;;;1.40;99.90;;;;;;5096684;28;20050;-81
2022/03/24 01:53:08;;;;;;;22.50;12.63;;;1.40;99.90;;;;;;5095517;28;20043;-82
2022/03/24 01:55:34;;;;;;;23.97;12.80;;;1.30;99.90;;;;;;5094320;28;20058;-82
2022/03/24 01:58:04;;;;;;;26.37;13.73;;;1.30;99.90;;;;;;5093384;28;20055;-81
2022/03/24 02:00:31;;;;;;;30.30;14.57;;;1.10;99.90;;;;;;5092347;28;20055;-81
2022/03/24 02:03:03;;;;;;;18.93;14.47;;;0.90;99.90;;;;;;5094062;28;20040;-82
2022/03/24 02:05:31;;;;;;;22.07;13.53;;;0.80;99.90;;;;;;5093785;28;20512;-82
2022/03/24 02:08:00;;;;;;;21.50;13.57;;;0.70;99.90;;;;;;5094076;28;20052;-82
2022/03/24 02:10:27;;;;;;;30.67;13.93;;;0.70;99.90;;;;;;5093314;28;20109;-83
2022/03/24 02:12:54;;;;;;;24.03;14.63;;;0.80;99.90;;;;;;5093640;28;20052;-82
2022/03/24 02:15:27;;;;;;;24.23;12.40;;;0.60;99.90;;;;;;5093777;28;20047;-82
2022/03/24 02:17:54;;;;;;;23.47;11.80;;;0.60;99.90;;;;;;5076792;28;20135;-82
2022/03/24 02:20:21;;;;;;;22.00;12.50;;;0.60;99.90;;;;;;5092129;28;20055;-83
2022/03/24 02:22:51;;;;;;;20.63;14.47;;;0.60;99.90;;;;;;5067122;28;20748;-83
2022/03/24 02:25:17;;;;;;;22.43;13.50;;;0.50;99.90;;;;;;5085404;28;20040;-82
2022/03/24 02:27:47;;;;;;;22.30;12.83;;;0.40;99.90;;;;;;5085288;28;20055;-82
2022/03/24 02:30:14;;;;;;;24.03;14.33;;;0.50;99.90;;;;;;5087045;28;20056;-82
2022/03/24 02:32:41;;;;;;;23.43;13.73;;;0.50;99.90;;;;;;5085009;28;20056;-83
2022/03/24 02:35:09;;;;;;;23.07;13.33;;;0.50;99.90;;;;;;5084751;28;20062;-81
2022/03/24 02:37:36;;;;;;;21.10;14.10;;;0.50;99.90;;;;;;5084463;28;20047;-82
2022/03/24 02:40:05;;;;;;;19.27;12.77;;;0.60;99.90;;;;;;5085564;28;20496;-81
2022/03/24 02:42:32;;;;;;;23.10;13.37;;;0.60;99.90;;;;;;5086784;28;20060;-83
2022/03/24 02:45:02;;;;;;;22.30;13.40;;;0.60;99.90;;;;;;5094737;28;20109;-83
2022/03/24 02:47:29;;;;;;;20.93;13.30;;;0.50;99.90;;;;;;5095040;28;20117;-82
2022/03/24 02:49:57;;;;;;;24.23;13.00;;;0.50;99.90;;;;;;5098566;28;20044;-81
2022/03/24 02:52:24;;;;;;;30.33;15.73;;;0.60;99.90;;;;;;5096873;28;20051;-80
2022/03/24 02:54:51;;;;;;;20.70;13.70;;;0.50;99.90;;;;;;5077621;28;20052;-83
2022/03/24 02:57:19;;;;;;;23.60;14.03;;;0.50;99.90;;;;;;5088986;28;20047;-82
2022/03/24 02:59:46;;;;;;;21.23;12.50;;;0.50;99.90;;;;;;5097299;28;20048;-82
2022/03/24 03:02:14;;;;;;;23.07;12.33;;;0.40;99.90;;;;;;5096009;28;20047;-82
2022/03/24 03:04:43;;;;;;;23.07;13.77;;;0.50;99.90;;;;;;5096719;28;20044;-83
2022/03/24 03:07:11;;;;;;;19.37;12.57;;;0.40;99.90;;;;;;5098012;28;20404;-83
2022/03/24 03:09:41;;;;;;;22.10;15.40;;;0.50;99.90;;;;;;5097833;28;20040;-82
2022/03/24 03:12:10;;;;;;;17.80;11.13;;;0.40;99.90;;;;;;5097511;28;20059;-82
2022/03/24 03:14:39;;;;;;;25.87;13.60;;;0.30;99.90;;;;;;5096157;28;20048;-82
2022/03/24 03:17:06;;;;;;;16.43;11.53;;;0.30;99.90;;;;;;5095743;28;20134;-82
2022/03/24 03:19:34;;;;;;;21.07;12.50;;;0.30;99.90;;;;;;5097447;28;20051;-82
2022/03/24 03:22:03;;;;;;;23.83;11.93;;;0.20;99.90;;;;;;5096787;28;20048;-82
2022/03/24 03:24:29;;;;;;;22.53;15.00;;;0.10;99.90;;;;;;5096748;28;20048;-83
2022/03/24 03:26:56;;;;;;;17.37;12.50;;;0.00;99.90;;;;;;5097016;28;20063;-82
2022/03/24 03:29:23;;;;;;;24.37;13.90;;;-0.10;99.90;;;;;;5097070;28;20048;-83
2022/03/24 03:31:53;;;;;;;25.87;13.33;;;-0.10;99.90;;;;;;5096705;28;20135;-82
2022/03/24 03:34:21;;;;;;;23.07;13.50;;;0.00;99.90;;;;;;5096166;28;20048;-83
2022/03/24 03:36:48;;;;;;;27.93;14.53;;;-0.10;99.90;;;;;;5096889;28;20138;-82
2022/03/24 03:39:15;;;;;;;14.10;11.43;;;0.00;99.90;;;;;;5095849;28;20044;-82
2022/03/24 03:41:42;;;;;;;18.20;12.23;;;0.00;99.90;;;;;;5095907;28;20059;-83
2022/03/24 03:44:11;;;;;;;24.97;14.73;;;0.00;99.90;;;;;;5095997;28;20086;-81
2022/03/24 03:46:38;;;;;;;18.40;10.97;;;0.00;99.90;;;;;;5095618;28;20051;-83
2022/03/24 03:49:08;;;;;;;18.80;12.30;;;0.00;99.90;;;;;;5096140;28;20050;-83
2022/03/24 03:51:35;;;;;;;18.93;13.10;;;0.00;99.90;;;;;;5096310;28;20173;-82
2022/03/24 03:54:03;;;;;;;23.47;12.77;;;0.00;99.90;;;;;;5096228;28;20051;-82
2022/03/24 03:56:30;;;;;;;19.90;14.73;;;0.10;99.90;;;;;;5095913;28;20062;-83
2022/03/24 03:58:59;;;;;;;19.00;12.47;;;0.10;99.90;;;;;;5095863;28;20048;-82
2022/03/24 04:01:26;;;;;;;16.07;12.80;;;0.10;99.90;;;;;;5095613;28;20048;-82
2022/03/24 04:03:53;;;;;;;28.67;17.60;;;0.20;99.90;;;;;;5096268;28;20140;-81
2022/03/24 04:06:21;;;;;;;22.67;14.10;;;0.20;99.90;;;;;;5095728;28;20083;-82
2022/03/24 04:08:48;;;;;;;25.00;14.53;;;0.10;99.90;;;;;;5103902;28;20109;-82
2022/03/24 04:11:15;;;;;;;28.33;13.67;;;0.00;99.90;;;;;;5096833;28;20059;-82
2022/03/24 04:13:44;;;;;;;25.37;15.23;;;0.00;99.90;;;;;;5104511;28;20071;-83
2022/03/24 04:16:13;;;;;;;27.40;15.33;;;-0.10;99.90;;;;;;5101093;28;20059;-82
2022/03/24 04:18:41;;;;;;;26.43;16.40;;;-0.20;99.90;;;;;;5104621;28;20059;-82
2022/03/24 04:21:08;;;;;;;25.03;13.93;;;-0.30;99.90;;;;;;5115848;28;20032;-81
2022/03/24 04:23:37;;;;;;;32.90;15.67;;;-0.20;99.90;;;;;;5096609;28;20054;-82
2022/03/24 04:26:04;;;;;;;31.23;16.20;;;-0.20;99.90;;;;;;5096687;28;20044;-82
2022/03/24 04:28:31;;;;;;;22.50;14.23;;;-0.20;99.90;;;;;;5094619;28;20154;-80
2022/03/24 04:30:58;;;;;;;24.97;15.77;;;-0.20;99.90;;;;;;5095214;28;20448;-81
2022/03/24 04:33:25;;;;;;;23.53;15.43;;;-0.20;99.90;;;;;;5095792;28;20074;-82
2022/03/24 04:35:52;;;;;;;24.40;14.00;;;-0.20;99.90;;;;;;5095721;28;20139;-82
2022/03/24 04:38:19;;;;;;;28.53;14.10;;;-0.10;99.90;;;;;;5094429;28;20048;-82
2022/03/24 04:40:47;;;;;;;27.97;15.03;;;-0.20;99.90;;;;;;5095152;28;20051;-82
2022/03/24 04:43:14;;;;;;;25.23;14.70;;;-0.20;99.90;;;;;;5094965;28;20044;-82
2022/03/24 04:45:41;;;;;;;17.27;14.00;;;-0.20;99.90;;;;;;5094677;28;20062;-82
2022/03/24 04:48:08;;;;;;;25.93;14.50;;;-0.20;99.90;;;;;;5095044;28;20055;-81
2022/03/24 04:50:35;;;;;;;18.47;12.83;;;-0.20;99.90;;;;;;5095124;28;20089;-77
2022/03/24 04:53:02;;;;;;;28.87;16.73;;;-0.20;99.90;;;;;;5096266;28;20494;-76
2022/03/24 04:55:29;;;;;;;23.70;16.67;;;-0.10;99.90;;;;;;5096834;28;20036;-81
2022/03/24 04:57:57;;;;;;;27.13;13.67;;;-0.10;99.90;;;;;;5095480;28;20055;-78
2022/03/24 05:00:24;;;;;;;23.40;14.27;;;-0.10;99.90;;;;;;5093006;28;20109;-80
2022/03/24 05:02:51;;;;;;;21.13;16.60;;;-0.20;99.90;;;;;;5092744;28;20055;-80
2022/03/24 05:05:17;;;;;;;25.13;14.27;;;-0.20;99.90;;;;;;5093762;28;20417;-80
2022/03/24 05:07:44;;;;;;;24.57;13.47;;;-0.20;99.90;;;;;;5094638;28;20079;-79
2022/03/24 05:10:11;;;;;;;27.37;16.27;;;-0.30;99.90;;;;;;5092343;28;20058;-78
2022/03/24 05:12:40;;;;;;;23.40;15.40;;;-0.20;99.90;;;;;;5094059;28;20151;-79
2022/03/24 05:15:11;;;;;;;26.53;16.27;;;-0.20;99.90;;;;;;5093463;28;20126;-80
2022/03/24 05:17:38;;;;;;;23.10;14.23;;;-0.20;99.90;;;;;;5094066;28;20097;-77
2022/03/24 05:20:07;;;;;;;24.87;13.37;;;-0.20;99.90;;;;;;5093912;28;20044;-76
2022/03/24 05:22:34;;;;;;;17.07;11.87;;;-0.20;99.90;;;;;;5093726;28;20478;-77
2022/03/24 05:25:01;;;;;;;26.63;14.43;;;-0.10;99.90;;;;;;5093867;28;20052;-81
2022/03/24 05:27:28;;;;;;;26.63;16.83;;;-0.20;99.90;;;;;;5094726;28;20113;-81
2022/03/24 05:29:54;;;;;;;33.00;17.50;;;-0.20;99.90;;;;;;5093397;28;20036;-79
2022/03/24 05:32:23;;;;;;;24.07;16.43;;;-0.20;99.90;;;;;;5094103;28;20102;-76
2022/03/24 05:34:49;;;;;;;28.63;15.40;;;-0.20;99.90;;;;;;5093304;28;20059;-83
2022/03/24 05:37:16;;;;;;;26.57;13.93;;;-0.10;99.90;;;;;;5094749;28;20044;-82
2022/03/24 05:39:43;;;;;;;33.80;16.87;;;0.00;99.90;;;;;;5093623;28;20040;-82
2022/03/24 05:42:10;;;;;;;21.80;13.90;;;0.20;99.90;;;;;;5093682;28;20039;-82
2022/03/24 05:44:37;;;;;;;24.97;17.73;;;0.30;99.90;;;;;;5094435;28;20048;-87
2022/03/24 05:47:05;;;;;;;28.30;16.43;;;0.40;99.90;;;;;;5095072;28;20440;-81
2022/03/24 05:49:35;;;;;;;31.17;16.43;;;0.40;99.90;;;;;;5093154;28;20457;-79
2022/03/24 05:52:02;;;;;;;30.13;18.10;;;0.30;99.90;;;;;;5093244;28;20048;-79
2022/03/24 05:54:29;;;;;;;29.23;16.90;;;0.40;99.90;;;;;;5093110;28;20048;-81
2022/03/24 05:56:56;;;;;;;23.53;14.37;;;0.60;99.90;;;;;;5093525;28;20047;-79
2022/03/24 05:59:22;;;;;;;33.97;16.00;;;0.70;99.90;;;;;;5092596;28;20481;-78
2022/03/24 06:01:49;;;;;;;28.47;16.63;;;0.90;99.90;;;;;;5092507;28;20094;-78
2022/03/24 06:04:19;;;;;;;25.63;15.27;;;1.10;99.90;;;;;;5093845;28;20101;-86
2022/03/24 06:06:53;;;;;;;34.00;18.37;;;1.50;99.90;;;;;;5080959;28;20054;-79
2022/03/24 06:09:20;;;;;;;26.23;16.77;;;2.00;99.90;;;;;;5104854;28;20406;-79
2022/03/24 06:11:48;;;;;;;34.13;18.67;;;2.50;99.90;;;;;;5099957;28;20109;-81
2022/03/24 06:14:15;;;;;;;31.00;16.97;;;2.90;99.90;;;;;;5093825;28;20040;-78
2022/03/24 06:16:42;;;;;;;34.70;16.60;;;3.40;99.90;;;;;;5091973;28;20456;-80
2022/03/24 06:19:10;;;;;;;30.73;17.50;;;3.80;99.90;;;;;;5092731;28;20044;-76
2022/03/24 06:21:36;;;;;;;28.00;16.27;;;4.20;99.90;;;;;;5094302;28;20055;-75
2022/03/24 06:24:06;;;;;;;30.77;17.57;;;4.60;99.90;;;;;;5090322;28;20090;-80
2022/03/24 06:26:32;;;;;;;29.30;17.87;;;5.00;99.90;;;;;;5097374;28;20048;-81
2022/03/24 06:29:01;;;;;;;36.90;19.03;;;5.30;99.90;;;;;;5098229;28;20044;-83
2022/03/24 06:31:28;;;;;;;31.40;18.87;;;5.70;99.90;;;;;;5079693;28;20147;-83
2022/03/24 06:33:54;;;;;;;32.63;18.20;;;5.90;99.90;;;;;;5097378;28;20048;-82
2022/03/24 06:36:21;;;;;;;33.83;19.23;;;6.30;99.90;;;;;;5096585;28;20054;-81
2022/03/24 06:38:48;;;;;;;34.27;19.60;;;6.60;99.90;;;;;;5097434;28;20478;-80
2022/03/24 06:41:16;;;;;;;29.13;17.37;;;6.90;99.90;;;;;;5096605;28;20066;-84
2022/03/24 06:43:43;;;;;;;30.80;19.17;;;7.30;99.90;;;;;;5097300;28;20059;-83
2022/03/24 06:46:10;;;;;;;33.27;18.93;;;7.50;99.90;;;;;;5096272;28;20078;-81
2022/03/24 06:48:37;;;;;;;35.80;19.93;;;7.70;99.90;;;;;;5096664;28;20048;-77
2022/03/24 06:51:04;;;;;;;29.10;17.93;;;8.10;99.90;;;;;;5096466;28;20075;-77
2022/03/24 06:53:31;;;;;;;34.87;19.47;;;8.50;99.60;;;;;;5096896;28;20051;-78
2022/03/24 06:55:58;;;;;;;32.87;19.00;;;8.90;97.90;;;;;;5096542;28;20036;-78
2022/03/24 06:58:26;;;;;;;37.53;20.83;;;9.20;96.60;;;;;;5096439;28;20048;-80
2022/03/24 07:00:53;;;;;;;36.97;20.40;;;9.50;95.10;;;;;;5095550;28;20066;-79
2022/03/24 07:03:19;;;;;;;38.58;20.30;;;9.80;93.80;;;;;;5095194;28;20432;-78
2022/03/24 07:05:46;;;;;;;31.40;19.00;;;10.10;92.40;;;;;;5097041;28;20500;-81
2022/03/24 07:08:13;;;;;;;33.03;19.50;;;10.30;91.70;;;;;;5098171;28;20053;-84
2022/03/24 07:10:39;;;;;;;34.17;19.73;;;10.50;90.70;;;;;;5096775;28;20047;-83
2022/03/24 07:13:07;;;;;;;37.20;19.30;;;10.70;90.00;;;;;;5096297;28;20054;-82
2022/03/24 07:15:35;;;;;;;33.90;18.95;;;11.00;88.70;;;;;;5096541;28;20455;-81
2022/03/24 07:18:03;;;;;;;34.63;20.58;;;11.30;86.40;;;;;;5100918;28;20048;-87
2022/03/24 07:20:34;;;;;;;30.83;19.33;;;11.60;85.60;;;;;;5102048;28;20051;-87
2022/03/24 07:23:03;;;;;;;31.10;19.92;;;11.90;84.40;;;;;;5097732;28;20055;-85
2022/03/24 07:25:30;;;;;;;34.90;19.83;;;12.20;82.70;;;;;;5097731;28;20122;-86
2022/03/24 07:27:57;;;;;;;34.28;20.40;;;12.60;81.20;;;;;;5096911;28;20135;-87
2022/03/24 07:30:25;;;;;;;32.05;18.55;;;12.90;79.80;;;;;;5097589;28;20044;-86
2022/03/24 07:32:55;;;;;;;32.92;21.15;;;13.10;77.70;;;;;;5095314;28;20452;-85
2022/03/24 07:35:24;;;;;;;31.98;19.08;;;13.30;77.30;;;;;;5097385;28;20101;-85
2022/03/24 07:37:51;;;;;;;32.22;20.10;;;13.60;76.10;;;;;;5095980;28;20052;-77
2022/03/24 07:40:21;;;;;;;31.63;19.02;;;14.00;74.10;;;;;;5095814;28;20044;-77
2022/03/24 07:42:49;;;;;;;32.13;20.85;;;14.10;73.40;;;;;;5097025;28;20048;-83
2022/03/24 07:45:16;;;;;;;31.42;19.55;;;14.40;71.80;;;;;;5096943;28;20048;-87
2022/03/24 07:48:07;;;;;;;30.77;19.83;;;14.60;71.00;;;;;;5095968;28;20425;-83
2022/03/24 07:50:34;;;;;;;31.30;20.17;;;14.90;70.20;;;;;;5099383;28;20320;-86
2022/03/24 07:53:17;;;;;;;35.30;21.50;;;15.20;69.20;;;;;;5103045;28;20040;-85
2022/03/24 07:55:45;;;;;;;35.33;21.70;;;15.50;68.40;;;;;;5105180;28;20048;-81
2022/03/24 07:58:14;;;;;;;32.22;21.40;;;15.70;66.10;;;;;;5098733;28;20062;-82
2022/03/24 08:00:42;;;;;;;35.22;20.42;;;15.90;65.60;;;;;;5096092;28;20060;-82
2022/03/24 08:03:13;;;;;;;35.83;21.15;;;15.80;65.00;;;;;;5095436;28;20102;-78
2022/03/24 08:05:39;;;;;;;32.67;20.15;;;16.20;64.70;;;;;;5095415;28;20044;-78
2022/03/24 08:08:07;;;;;;;29.63;19.90;;;16.50;62.80;;;;;;5095567;28;20428;-81
2022/03/24 08:10:34;;;;;;;31.75;19.83;;;16.70;61.40;;;;;;5095438;28;20052;-78
2022/03/24 08:13:00;;;;;;;33.80;20.38;;;16.80;61.30;;;;;;5095184;28;20044;-81
2022/03/24 08:15:27;;;;;;;37.75;23.05;;;17.20;60.70;;;;;;5096090;28;20040;-82
2022/03/24 08:17:54;;;;;;;34.38;21.25;;;17.50;59.40;;;;;;5095693;28;20497;-82
2022/03/24 08:20:23;;;;;;;31.13;21.00;;;17.60;58.00;;;;;;5095895;28;20067;-81
2022/03/24 08:22:50;;;;;;;37.45;22.00;;;17.80;58.60;;;;;;5095838;28;20047;-83
2022/03/24 08:25:17;;;;;;;37.70;21.88;;;18.00;56.90;;;;;;5095875;28;20113;-82
2022/03/24 08:27:44;;;;;;;39.35;21.88;;;18.00;56.40;;;;;;5094606;28;20066;-83
2022/03/24 08:30:12;;;;;;;32.53;19.95;;;18.40;56.50;;;;;;5095028;28;20048;-82
2022/03/24 08:32:39;;;;;;;34.47;21.50;;;18.50;55.80;;;;;;5093778;28;20054;-82
2022/03/24 08:35:07;;;;;;;31.92;22.05;;;18.50;55.60;;;;;;5095023;28;20055;-84
2022/03/24 08:37:35;;;;;;;34.75;21.88;;;18.70;55.70;;;;;;5095007;28;20412;-83
2022/03/24 08:40:02;;;;;;;34.45;22.98;;;18.80;54.50;;;;;;5094750;28;20043;-83
2022/03/24 08:42:29;;;;;;;41.22;21.55;;;18.00;54.10;;;;;;5094421;28;20048;-82
2022/03/24 08:44:56;;;;;;;33.10;21.27;;;18.30;55.40;;;;;;5093784;28;20132;-83
2022/03/24 08:47:23;;;;;;;40.58;24.20;;;18.90;55.60;;;;;;5094315;28;20479;-84
2022/03/24 08:49:50;;;;;;;58.53;35.78;;;19.40;54.00;;;;;;5095068;28;20048;-85
2022/03/24 08:52:17;;;;;;;39.00;24.58;;;19.90;53.30;;;;;;5094193;28;20485;-83
2022/03/24 08:54:45;;;;;;;37.42;23.60;;;20.00;52.00;;;;;;5094828;28;20076;-84
2022/03/24 08:57:12;;;;;;;34.65;23.90;;;20.30;51.50;;;;;;5094671;28;20043;-84
2022/03/24 08:59:39;;;;;;;33.40;22.23;;;20.60;51.10;;;;;;5094622;28;20044;-85
2022/03/24 09:02:06;;;;;;;34.88;21.58;;;21.10;50.60;;;;;;5094629;28;20505;-85
2022/03/24 09:04:33;;;;;;;33.65;22.17;;;21.30;49.90;;;;;;5096335;28;20051;-84
2022/03/24 09:06:59;;;;;;;34.42;22.02;;;21.50;48.90;;;;;;5094051;28;20054;-83
2022/03/24 09:09:30;;;;;;;35.90;23.63;;;21.70;48.60;;;;;;5094539;28;20059;-93
2022/03/24 09:11:58;;;;;;;31.38;21.30;;;21.90;48.20;;;;;;5097940;28;20474;-91
2022/03/24 09:14:25;;;;;;;33.58;24.05;;;22.10;47.50;;;;;;5096767;28;20048;-90
2022/03/24 09:16:52;;;;;;;32.85;21.05;;;22.30;47.70;;;;;;5097249;28;20134;-91
2022/03/24 09:19:19;;;;;;;32.63;22.20;;;22.50;46.70;;;;;;5096577;28;20410;-91
2022/03/24 09:21:46;;;;;;;34.33;21.02;;;22.50;46.10;;;;;;5096542;28;20130;-91
2022/03/24 09:24:13;;;;;;;36.25;22.27;;;22.80;45.70;;;;;;5095213;28;20501;-89
2022/03/24 09:26:40;;;;;;;31.48;20.23;;;23.10;44.90;;;;;;5097045;28;20048;-91
2022/03/24 09:29:11;;;;;;;33.97;22.92;;;22.90;44.80;;;;;;5096573;28;20056;-90
2022/03/24 09:31:38;;;;;;;29.83;21.60;;;23.00;44.50;;;;;;5095884;28;20046;-89
2022/03/24 09:34:05;;;;;;;31.80;22.65;;;23.30;44.70;;;;;;5096469;28;20044;-90
2022/03/24 09:36:32;;;;;;;37.60;22.23;;;23.80;44.00;;;;;;5095654;28;20039;-90
2022/03/24 09:39:01;;;;;;;31.95;23.00;;;24.00;42.70;;;;;;5096457;28;20460;-89
2022/03/24 09:41:29;;;;;;;31.20;20.35;;;23.90;42.40;;;;;;5096328;28;20052;-90
2022/03/24 09:43:57;;;;;;;28.20;20.13;;;24.10;42.80;;;;;;5103477;28;20164;-89
2022/03/24 09:46:27;;;;;;;31.98;21.23;;;24.30;42.40;;;;;;5105681;28;20059;-91
2022/03/24 09:48:54;;;;;;;36.33;21.98;;;24.50;41.70;;;;;;5106607;28;20044;-90
2022/03/24 09:51:22;;;;;;;28.65;20.05;;;24.80;41.80;;;;;;5106256;28;20055;-91
2022/03/24 09:53:49;;;;;;;25.00;19.25;;;25.00;41.40;;;;;;5106416;28;20044;-91
2022/03/24 09:56:17;;;;;;;31.67;21.02;;;25.60;40.60;;;;;;5115942;28;20115;-92
2022/03/24 09:58:44;;;;;;;31.27;19.70;;;25.70;40.10;;;;;;5114830;28;20063;-93
2022/03/24 10:01:13;;;;;;;27.33;19.20;;;25.80;39.70;;;;;;5113178;28;20047;-91
2022/03/24 10:04:02;;;;;;;29.70;19.77;;;26.00;39.20;;;;;;5097513;28;20140;-80
2022/03/24 10:06:29;;;;;;;25.52;19.77;;;26.60;38.90;;;;;;5079030;28;20040;-80
2022/03/24 10:08:57;;;;;;;30.15;19.55;;;26.80;38.30;;;;;;5072780;28;20037;-82
2022/03/24 10:11:26;;;;;;;29.77;20.25;;;27.30;38.30;;;;;;5074007;28;20052;-85
2022/03/24 10:13:54;;;;;;;27.73;18.08;;;27.40;37.70;;;;;;5069941;28;20441;-84
2022/03/24 10:16:44;;;;;;;25.42;18.60;;;27.80;38.50;;;;;;5074167;28;20135;-84
2022/03/24 10:19:14;;;;;;;29.17;17.95;;;28.30;37.10;;;;;;5066429;28;20104;-80
2022/03/24 10:21:42;;;;;;;32.40;20.43;;;28.00;37.00;;;;;;5073761;28;20043;-80
2022/03/24 10:24:11;;;;;;;31.17;20.42;;;28.20;36.70;;;;;;5071950;28;20041;-78
2022/03/24 10:26:42;;;;;;;29.33;19.65;;;29.00;36.50;;;;;;5072570;28;20394;-79
2022/03/24 10:29:10;;;;;;;27.45;18.73;;;29.40;35.90;;;;;;5072832;28;20106;-77
2022/03/24 10:31:39;;;;;;;31.55;20.02;;;29.90;36.40;;;;;;5071935;28;20406;-80
2022/03/24 10:34:06;;;;;;;29.73;20.27;;;30.40;34.90;;;;;;5071815;28;20063;-78
2022/03/24 10:36:35;;;;;;;24.95;17.95;;;30.70;34.80;;;;;;5072860;28;20048;-86
2022/03/24 10:39:04;;;;;;;27.25;18.58;;;31.20;34.60;;;;;;5063273;28;20047;-83
2022/03/24 10:41:32;;;;;;;21.63;16.90;;;31.30;33.80;;;;;;5072836;28;20135;-80
2022/03/24 10:44:02;;;;;;;24.92;17.10;;;30.90;32.70;;;;;;5073928;28;20060;-82
2022/03/24 10:46:32;;;;;;;24.05;16.77;;;30.50;32.60;;;;;;5072681;28;20440;-83
2022/03/24 10:49:00;;;;;;;26.00;17.75;;;30.40;32.70;;;;;;5072902;28;20040;-83
2022/03/24 10:51:28;;;;;;;26.35;19.27;;;30.50;32.80;;;;;;5073286;28;20067;-83
2022/03/24 10:54:18;;;;;;;28.20;18.20;;;31.00;33.00;;;;;;5071896;28;20044;-82
2022/03/24 10:56:47;;;;;;;24.48;17.00;;;31.50;32.20;;;;;;5072919;28;20048;-83
2022/03/24 10:59:13;;;;;;;27.77;18.02;;;31.60;32.00;;;;;;5072227;28;20045;-81
2022/03/24 11:01:40;;;;;;;24.73;16.65;;;31.40;31.70;;;;;;5071753;28;20045;-80
2022/03/24 11:04:07;;;;;;;30.02;18.20;;;31.70;31.80;;;;;;5071985;28;20049;-81
2022/03/24 11:06:34;;;;;;;25.92;16.50;;;30.40;30.60;;;;;;5072149;28;20506;-81
2022/03/24 11:09:03;;;;;;;23.33;15.35;;;30.80;31.00;;;;;;5067830;28;20078;-83
2022/03/24 11:11:30;;;;;;;24.27;15.35;;;31.40;29.90;;;;;;5075878;28;20486;-82
2022/03/24 11:13:58;;;;;;;20.88;15.57;;;31.70;29.90;;;;;;5076377;28;20131;-82
2022/03/24 11:16:27;;;;;;;20.30;14.57;;;31.60;30.20;;;;;;5075586;28;20059;-82
2022/03/24 11:18:56;;;;;;;24.52;15.48;;;31.70;29.90;;;;;;5075370;28;20048;-83
2022/03/24 11:21:32;;;;;;;22.83;16.38;;;31.60;30.00;;;;;;5075780;28;20055;-81
2022/03/24 11:23:59;;;;;;;22.48;14.95;;;32.10;29.30;;;;;;5075625;28;20491;-81
2022/03/24 11:26:30;;;;;;;20.48;14.95;;;32.00;29.20;;;;;;5074628;28;20406;-83
2022/03/24 11:28:58;;;;;;;21.23;14.68;;;31.70;28.70;;;;;;5075742;28;20509;-81
2022/03/24 11:31:28;;;;;;;24.67;16.55;;;32.10;28.90;;;;;;5068286;28;20056;-83
2022/03/24 11:33:56;;;;;;;22.87;14.03;;;32.10;28.80;;;;;;5075945;28;20049;-82
2022/03/24 11:36:24;;;;;;;21.75;14.60;;;31.60;28.60;;;;;;5075657;28;20044;-82
2022/03/24 11:38:54;;;;;;;19.33;14.55;;;31.30;29.10;;;;;;5075546;28;20102;-82
2022/03/24 11:41:30;;;;;;;20.00;13.77;;;31.70;29.10;;;;;;5075631;28;20059;-82
2022/03/24 11:44:03;;;;;;;20.70;13.88;;;32.10;29.10;;;;;;5075523;28;20045;-83
2022/03/24 11:46:34;;;;;;;20.35;14.35;;;31.90;28.70;;;;;;5075053;28;20094;-82
2022/03/24 11:49:21;;;;;;;18.35;13.23;;;32.40;28.90;;;;;;5075662;28;20055;-83
2022/03/24 11:51:50;;;;;;;21.13;13.98;;;32.80;28.10;;;;;;5074763;28;20436;-82
2022/03/24 11:54:29;;;;;;;19.60;16.13;;;32.40;28.10;;;;;;5075484;28;20053;-82
2022/03/24 11:57:33;;;;;;;22.00;14.35;;;32.50;28.50;;;;;;5074658;28;20060;-80
2022/03/24 12:00:48;;;;;;;21.83;14.18;;;33.00;28.20;;;;;;5075135;28;20129;-82
2022/03/24 12:03:41;;;;;;;21.52;13.57;;;33.00;28.30;;;;;;5069322;28;20064;-86
2022/03/24 12:06:09;;;;;;;21.52;14.10;;;32.60;28.20;;;;;;5066866;28;20110;-82
2022/03/24 12:08:47;;;;;;;16.40;12.52;;;32.40;28.30;;;;;;5075663;28;20102;-84
2022/03/24 12:11:41;;;;;;;27.95;12.80;;;32.70;29.00;;;;;;5074609;28;20044;-85
2022/03/24 12:14:13;;;;;;;16.80;13.38;;;32.60;28.10;;;;;;5075564;28;20482;-80
2022/03/24 12:16:41;;;;;;;19.52;14.45;;;32.60;28.70;;;;;;5075026;28;20547;-79
2022/03/24 12:19:34;;;;;;;15.20;12.07;;;32.50;28.70;;;;;;5074596;28;20055;-86
2022/03/24 12:22:02;;;;;;;17.52;11.82;;;32.40;28.40;;;;;;5075658;28;20139;-87
2022/03/24 12:24:36;;;;;;;18.48;12.25;;;32.30;27.80;;;;;;5075634;28;20502;-84
2022/03/24 12:27:06;;;;;;;18.77;13.90;;;32.20;27.70;;;;;;5074139;28;20102;-78
2022/03/24 12:29:34;;;;;;;16.95;10.35;;;32.30;28.10;;;;;;5074757;28;20048;-79
2022/03/24 12:32:02;;;;;;;15.88;11.95;;;32.10;28.00;;;;;;5074230;28;20548;-81
2022/03/24 12:34:30;;;;;;;17.48;11.27;;;31.90;28.00;;;;;;5075012;28;20044;-81
2022/03/24 12:36:57;;;;;;;16.25;10.43;;;31.60;27.30;;;;;;5074483;28;20094;-80